Time,TemperatureF,DewpointF,PressureIn,WindDirection,WindDirectionDegrees,WindSpeedMPH,WindSpeedGustMPH,Humidity,HourlyPrecipIn,Conditions,Clouds,dailyrainin,SoftwareType,DateUTC
2013-12-01 00:02:00,34.1,29.0,30.11,North,5,0.0,-999.0,81,-99.99,,,0.00,weatherlink.com 1.10,2013-12-01 06:02:00,
2013-12-01 00:17:00,33.6,29.0,30.11,North,5,0.0,-999.0,82,-99.99,,,0.00,weatherlink.com 1.10,2013-12-01 06:17:00,
2013-12-01 00:32:00,33.0,28.0,30.11,North,5,1.0,-999.0,83,-99.99,,,0.00,weatherlink.com 1.10,2013-12-01 06:32:00,
2013-12-01 00:47:00,32.7,29.0,30.11,North,5,0.0,-999.0,85,-99.99,,,0.00,weatherlink.com 1.10,2013-12-01 06:47:00,
2013-12-01 01:02:00,31.9,27.0,30.11,North,5,1.0,-999.0,82,-99.99,,,0.00,weatherlink.com 1.10,2013-12-01 07:02:00,
2013-12-01 01:17:00,31.7,28.0,30.11,North,5,0.0,-999.0,85,-99.99,,,0.00,weatherlink.com 1.10,2013-12-01 07:17:00,
2013-12-01 01:32:00,31.0,27.0,30.12,North,5,0.0,-999.0,84,-99.99,,,0.00,weatherlink.com 1.10,2013-12-01 07:32:00,
2013-12-01 01:47:00,30.5,27.0,30.12,North,5,0.0,-999.0,85,-99.99,,,0.00,weatherlink.com 1.10,2013-12-01 07:47:00,
2013-12-01 02:02:00,30.2,27.0,30.12,North,5,0.0,-999.0,86,-99.99,,,0.00,weatherlink.com 1.10,2013-12-01 08:02:00,
2013-12-01 02:17:00,30.4,27.0,30.13,North,5,0.0,-999.0,87,-99.99,,,0.00,weatherlink.com 1.10,2013-12-01 08:17:00,
2013-12-01 02:32:00,29.9,26.0,30.13,North,5,1.0,-999.0,86,-99.99,,,0.00,weatherlink.com 1.10,2013-12-01 08:32:00,
2013-12-01 02:47:00,29.8,27.0,30.13,North,5,0.0,-999.0,89,-99.99,,,0.00,weatherlink.com 1.10,2013-12-01 08:47:00,
2013-12-01 03:02:00,29.0,26.0,30.14,North,5,0.0,-999.0,87,-99.99,,,0.00,weatherlink.com 1.10,2013-12-01 09:02:00,
2013-12-01 03:17:00,28.7,26.0,30.14,North,5,1.0,-999.0,88,-99.99,,,0.00,weatherlink.com 1.10,2013-12-01 09:17:00,
2013-12-01 03:32:00,28.6,26.0,30.14,North,5,1.0,-999.0,88,-99.99,,,0.00,weatherlink.com 1.10,2013-12-01 09:32:00,
2013-12-01 03:47:00,28.4,25.0,30.14,North,5,0.0,-999.0,88,-99.99,,,0.00,weatherlink.com 1.10,2013-12-01 09:47:00,
2013-12-01 04:02:00,28.8,26.0,30.14,North,5,0.0,-999.0,90,-99.99,,,0.00,weatherlink.com 1.10,2013-12-01 10:02:00,
2013-12-01 04:17:00,28.4,26.0,30.14,North,5,0.0,-999.0,89,-99.99,,,0.00,weatherlink.com 1.10,2013-12-01 10:17:00,
2013-12-01 04:32:00,28.1,25.0,30.14,North,5,0.0,-999.0,88,-99.99,,,0.00,weatherlink.com 1.10,2013-12-01 10:32:00,
2013-12-01 04:48:00,29.4,27.0,30.15,North,5,0.0,-999.0,91,-99.99,,,0.00,weatherlink.com 1.10,2013-12-01 10:48:00,
2013-12-01 05:03:00,29.1,27.0,30.15,North,5,0.0,-999.0,90,-99.99,,,0.00,weatherlink.com 1.10,2013-12-01 11:03:00,
2013-12-01 05:18:00,31.9,30.0,30.16,North,5,0.0,-999.0,94,-99.99,,,0.00,weatherlink.com 1.10,2013-12-01 11:18:00,
2013-12-01 05:33:00,32.0,30.0,30.16,North,5,0.0,-999.0,91,-99.99,,,0.00,weatherlink.com 1.10,2013-12-01 11:33:00,
2013-12-01 05:48:00,32.7,31.0,30.17,North,5,0.0,-999.0,93,-99.99,,,0.00,weatherlink.com 1.10,2013-12-01 11:48:00,
2013-12-01 06:03:00,29.7,27.0,30.16,North,5,0.0,-999.0,91,-99.99,,,0.00,weatherlink.com 1.10,2013-12-01 12:03:00,
2013-12-01 06:18:00,32.1,31.0,30.17,North,5,0.0,-999.0,95,-99.99,,,0.00,weatherlink.com 1.10,2013-12-01 12:18:00,
2013-12-01 06:33:00,31.6,30.0,30.17,North,5,0.0,-999.0,94,-99.99,,,0.00,weatherlink.com 1.10,2013-12-01 12:33:00,
2013-12-01 06:48:00,28.0,26.0,30.17,North,5,0.0,-999.0,92,-99.99,,,0.00,weatherlink.com 1.10,2013-12-01 12:48:00,
2013-12-01 07:03:00,25.9,24.0,30.17,North,5,0.0,-999.0,92,-99.99,,,0.00,weatherlink.com 1.10,2013-12-01 13:03:00,
2013-12-01 07:18:00,26.2,24.0,30.17,North,5,0.0,-999.0,92,-99.99,,,0.00,weatherlink.com 1.10,2013-12-01 13:18:00,
2013-12-01 07:33:00,27.2,26.0,30.17,North,5,0.0,-999.0,93,-99.99,,,0.00,weatherlink.com 1.10,2013-12-01 13:33:00,
2013-12-01 07:48:00,26.4,24.0,30.18,North,5,0.0,-999.0,92,-99.99,,,0.00,weatherlink.com 1.10,2013-12-01 13:48:00,
2013-12-01 08:03:00,25.1,23.0,30.19,West,269,0.0,-999.0,92,-99.99,,,0.00,weatherlink.com 1.10,2013-12-01 14:03:00,
2013-12-01 08:18:00,26.8,25.0,30.18,West,269,0.0,-999.0,93,-99.99,,,0.00,weatherlink.com 1.10,2013-12-01 14:18:00,
2013-12-01 11:53:00,39.9,28.0,30.15,WNW,290,1.0,-999.0,62,-99.99,,,0.00,weatherlink.com 1.10,2013-12-01 17:53:00,
2013-12-01 12:03:00,39.5,28.0,30.15,West,281,0.0,-999.0,64,-99.99,,,0.00,weatherlink.com 1.10,2013-12-01 18:03:00,
2013-12-01 12:18:00,38.8,27.0,30.15,ENE,61,1.0,-999.0,64,-99.99,,,0.00,weatherlink.com 1.10,2013-12-01 18:18:00,
2013-12-01 12:33:00,39.8,27.0,30.14,ENE,65,1.0,-999.0,61,-99.99,,,0.00,weatherlink.com 1.10,2013-12-01 18:33:00,
2013-12-01 12:48:00,39.3,26.0,30.13,ESE,107,0.0,-999.0,60,-99.99,,,0.00,weatherlink.com 1.10,2013-12-01 18:48:00,
2013-12-01 13:03:00,40.5,29.0,30.12,North,355,0.0,-999.0,63,-99.99,,,0.00,weatherlink.com 1.10,2013-12-01 19:03:00,
2013-12-01 13:18:00,41.1,28.0,30.11,NE,40,0.0,-999.0,59,-99.99,,,0.00,weatherlink.com 1.10,2013-12-01 19:18:00,
2013-12-01 13:33:00,40.0,27.0,30.11,ENE,61,2.0,-999.0,61,-99.99,,,0.00,weatherlink.com 1.10,2013-12-01 19:33:00,
2013-12-01 13:48:00,41.3,29.0,30.10,NE,53,0.0,-999.0,61,-99.99,,,0.00,weatherlink.com 1.10,2013-12-01 19:48:00,
2013-12-01 14:03:00,40.7,27.0,30.11,NE,53,0.0,-999.0,59,-99.99,,,0.00,weatherlink.com 1.10,2013-12-01 20:03:00,
2013-12-01 14:18:00,41.1,27.0,30.11,NE,49,0.0,-999.0,58,-99.99,,,0.00,weatherlink.com 1.10,2013-12-01 20:18:00,
2013-12-01 14:33:00,41.3,27.0,30.11,NW,323,2.0,-999.0,58,-99.99,,,0.00,weatherlink.com 1.10,2013-12-01 20:33:00,
2013-12-01 14:48:00,40.7,27.0,30.10,NW,321,0.0,-999.0,58,-99.99,,,0.00,weatherlink.com 1.10,2013-12-01 20:48:00,
2013-12-01 15:03:00,40.1,27.0,30.09,NW,317,0.0,-999.0,61,-99.99,,,0.00,weatherlink.com 1.10,2013-12-01 21:03:00,
2013-12-01 15:18:00,40.3,31.0,30.09,NW,317,0.0,-999.0,70,-99.99,,,0.00,weatherlink.com 1.10,2013-12-01 21:18:00,
2013-12-01 15:33:00,39.8,30.0,30.09,NW,317,0.0,-999.0,67,-99.99,,,0.00,weatherlink.com 1.10,2013-12-01 21:33:00,
2013-12-01 15:48:00,38.4,28.0,30.09,NW,317,0.0,-999.0,66,-99.99,,,0.00,weatherlink.com 1.10,2013-12-01 21:48:00,
2013-12-01 16:03:00,38.9,34.0,30.08,NW,317,0.0,-999.0,83,-99.99,,,0.00,weatherlink.com 1.10,2013-12-01 22:03:00,
2013-12-01 16:18:00,39.1,35.0,30.08,NW,317,0.0,-999.0,84,-99.99,,,0.00,weatherlink.com 1.10,2013-12-01 22:18:00,
2013-12-01 16:33:00,36.3,28.0,30.08,NW,317,0.0,-999.0,73,-99.99,,,0.00,weatherlink.com 1.10,2013-12-01 22:33:00,
2013-12-01 16:48:00,35.4,28.0,30.08,NW,317,0.0,-999.0,74,-99.99,,,0.00,weatherlink.com 1.10,2013-12-01 22:48:00,
2013-12-01 17:03:00,34.3,26.0,30.08,NW,321,0.0,-999.0,73,-99.99,,,0.00,weatherlink.com 1.10,2013-12-01 23:03:00,
2013-12-01 17:18:00,33.8,26.0,30.08,NW,321,0.0,-999.0,72,-99.99,,,0.00,weatherlink.com 1.10,2013-12-01 23:18:00,
2013-12-01 17:33:00,33.2,25.0,30.08,NW,321,0.0,-999.0,73,-99.99,,,0.00,weatherlink.com 1.10,2013-12-01 23:33:00,
2013-12-01 17:48:00,33.5,27.0,30.08,NW,321,0.0,-999.0,76,-99.99,,,0.00,weatherlink.com 1.10,2013-12-01 23:48:00,
2013-12-01 18:03:00,32.7,27.0,30.08,NW,321,0.0,-999.0,79,-99.99,,,0.00,weatherlink.com 1.10,2013-12-02 00:03:00,
2013-12-01 18:18:00,40.2,39.0,30.08,NW,321,0.0,-999.0,94,-99.99,,,0.00,weatherlink.com 1.10,2013-12-02 00:18:00,
2013-12-01 18:33:00,33.3,28.0,30.08,NW,321,0.0,-999.0,80,-99.99,,,0.00,weatherlink.com 1.10,2013-12-02 00:33:00,
2013-12-01 18:48:00,31.2,25.0,30.07,NW,321,0.0,-999.0,79,-99.99,,,0.00,weatherlink.com 1.10,2013-12-02 00:48:00,
2013-12-01 19:03:00,31.4,26.0,30.07,NW,321,0.0,-999.0,81,-99.99,,,0.00,weatherlink.com 1.10,2013-12-02 01:03:00,
2013-12-01 19:18:00,32.2,27.0,30.08,NW,321,0.0,-999.0,82,-99.99,,,0.00,weatherlink.com 1.10,2013-12-02 01:18:00,
2013-12-01 19:33:00,30.9,25.0,30.07,NW,321,0.0,-999.0,78,-99.99,,,0.00,weatherlink.com 1.10,2013-12-02 01:33:00,
2013-12-01 19:48:00,30.1,24.0,30.07,NW,321,1.0,-999.0,79,-99.99,,,0.00,weatherlink.com 1.10,2013-12-02 01:48:00,
2013-12-01 20:03:00,30.2,24.0,30.07,NW,321,0.0,-999.0,78,-99.99,,,0.00,weatherlink.com 1.10,2013-12-02 02:03:00,
2013-12-01 20:18:00,29.0,24.0,30.07,NW,321,0.0,-999.0,82,-99.99,,,0.00,weatherlink.com 1.10,2013-12-02 02:18:00,
2013-12-01 20:33:00,29.2,24.0,30.07,NW,321,0.0,-999.0,80,-99.99,,,0.00,weatherlink.com 1.10,2013-12-02 02:33:00,
2013-12-01 20:49:00,29.5,24.0,30.06,NW,321,0.0,-999.0,80,-99.99,,,0.00,weatherlink.com 1.10,2013-12-02 02:49:00,
2013-12-01 21:04:00,29.8,24.0,30.06,NW,321,0.0,-999.0,79,-99.99,,,0.00,weatherlink.com 1.10,2013-12-02 03:04:00,
2013-12-01 21:19:00,29.2,23.0,30.06,NW,321,0.0,-999.0,79,-99.99,,,0.00,weatherlink.com 1.10,2013-12-02 03:19:00,
2013-12-01 21:34:00,28.6,23.0,30.05,NW,321,0.0,-999.0,80,-99.99,,,0.00,weatherlink.com 1.10,2013-12-02 03:34:00,
2013-12-01 21:49:00,28.2,23.0,30.05,NW,321,0.0,-999.0,82,-99.99,,,0.00,weatherlink.com 1.10,2013-12-02 03:49:00,
2013-12-01 22:04:00,29.2,26.0,30.04,NW,321,0.0,-999.0,89,-99.99,,,0.00,weatherlink.com 1.10,2013-12-02 04:04:00,
2013-12-01 22:19:00,27.9,23.0,30.04,NW,321,1.0,-999.0,83,-99.99,,,0.00,weatherlink.com 1.10,2013-12-02 04:19:00,
2013-12-01 22:34:00,28.0,24.0,30.04,NW,321,0.0,-999.0,83,-99.99,,,0.00,weatherlink.com 1.10,2013-12-02 04:34:00,
2013-12-01 22:49:00,28.3,25.0,30.04,NW,321,0.0,-999.0,87,-99.99,,,0.00,weatherlink.com 1.10,2013-12-02 04:49:00,
2013-12-01 23:04:00,28.1,25.0,30.03,NW,321,0.0,-999.0,87,-99.99,,,0.00,weatherlink.com 1.10,2013-12-02 05:04:00,
2013-12-01 23:19:00,27.1,23.0,30.02,NW,321,0.0,-999.0,85,-99.99,,,0.00,weatherlink.com 1.10,2013-12-02 05:19:00,
2013-12-01 23:34:00,27.3,23.0,30.02,NW,321,0.0,-999.0,85,-99.99,,,0.00,weatherlink.com 1.10,2013-12-02 05:34:00,
2013-12-01 23:49:00,27.5,24.0,30.01,NW,321,0.0,-999.0,85,-99.99,,,0.00,weatherlink.com 1.10,2013-12-02 05:49:00,